Time;durP1;ratioP1;P1;durP2;ratioP2;P2;SDS_P1;SDS_P2;PMS_P1;PMS_P2;Temp;Humidity;BMP_temperature;BMP_pressure;BME280_temperature;BME280_humidity;BME280_pressure;Samples;Min_cycle;Max_cycle;Signal;HPM_P1;HPM_P2
2022/10/23 00:02:09;;;;;;;23.05;15.38;;;;;;;9.67;84.68;100499.14;2159534;82;29990;-58
2022/10/23 00:05:10;;;;;;;21.37;14.65;;;;;;;9.64;84.64;100501.94;2160314;82;31376;-58
2022/10/23 00:08:12;;;;;;;22.82;17.55;;;;;;;9.60;84.52;100503.00;2132472;82;33013;-57
2022/10/23 00:11:17;;;;;;;21.02;16.07;;;;;;;9.55;84.57;100502.31;2161125;82;30000;-57
2022/10/23 00:14:23;;;;;;;19.12;14.70;;;;;;;9.51;84.56;100500.23;2170781;81;27682;-58
2022/10/23 00:17:24;;;;;;;21.27;14.87;;;;;;;9.48;84.60;100504.38;2171066;82;28642;-59
2022/10/23 00:20:25;;;;;;;17.95;14.53;;;;;;;9.45;84.72;100489.79;2170960;81;31391;-57
2022/10/23 00:23:27;;;;;;;21.87;16.42;;;;;;;9.44;84.72;100492.06;2160369;81;33025;-57
2022/10/23 00:26:28;;;;;;;22.87;16.48;;;;;;;9.40;84.69;100490.47;2151860;82;29692;-57
2022/10/23 00:29:30;;;;;;;25.05;16.77;;;;;;;9.35;84.68;100487.11;2151378;82;27686;-57
2022/10/23 00:32:32;;;;;;;22.17;17.05;;;;;;;9.32;84.74;100488.11;2151299;82;29541;-57
2022/10/23 00:35:34;;;;;;;20.92;16.05;;;;;;;9.27;84.72;100497.64;2151282;82;32440;-58
2022/10/23 00:38:36;;;;;;;20.85;14.45;;;;;;;9.23;84.68;100496.05;2151685;82;32962;-58
2022/10/23 00:41:37;;;;;;;19.35;13.98;;;;;;;9.20;84.74;100500.63;2151766;82;30491;-57
2022/10/23 00:44:47;;;;;;;20.25;15.38;;;;;;;9.15;84.68;100496.81;2151827;82;27684;-57
2022/10/23 00:47:48;;;;;;;18.45;13.93;;;;;;;9.11;84.62;100496.08;2151426;82;29109;-58
2022/10/23 00:50:50;;;;;;;19.65;14.85;;;;;;;9.07;84.59;100496.27;2151717;82;32206;-65
2022/10/23 00:53:56;;;;;;;22.05;13.83;;;;;;;9.02;84.61;100488.41;2158956;82;33384;-59
2022/10/23 00:57:01;;;;;;;18.67;13.88;;;;;;;8.97;84.60;100488.60;2151663;82;30100;-57
2022/10/23 01:00:05;;;;;;;21.77;13.40;;;;;;;8.92;84.63;100487.94;2151717;82;27696;-58
2022/10/23 01:03:06;;;;;;;22.73;16.05;;;;;;;8.89;84.62;100487.16;2151646;82;28674;-58
2022/10/23 01:06:31;;;;;;;17.60;13.38;;;;;;;8.84;84.58;100488.69;2151681;82;31445;-58
2022/10/23 01:09:47;;;;;;;18.80;13.27;;;;;;;8.75;84.38;100493.07;2151915;82;34114;-58
2022/10/23 01:13:06;;;;;;;18.62;13.65;;;;;;;8.75;84.38;100493.07;2146197;82;30665;-58
2022/10/23 01:16:21;;;;;;;17.70;13.48;;;;;;;8.69;84.56;100495.48;2024614;87;27818;-58
2022/10/23 01:19:47;;;;;;;18.70;13.30;;;;;;;8.65;84.61;100499.23;2059157;86;28128;-57
2022/10/23 01:23:09;;;;;;;17.80;12.47;;;;;;;8.60;84.59;100510.55;2056323;86;30870;-59
2022/10/23 01:26:19;;;;;;;16.85;13.08;;;;;;;8.57;84.68;100509.32;1972666;90;34182;-58
2022/10/23 01:29:40;;;;;;;16.17;12.20;;;;;;;8.53;84.65;100507.69;1972894;90;30562;-58
2022/10/23 01:32:55;;;;;;;17.17;13.18;;;;;;;8.49;84.63;100508.28;1973025;90;27724;-58
2022/10/23 01:36:02;;;;;;;11.53;8.38;;;;;;;8.45;84.62;100506.61;1972394;90;28477;-57
2022/10/23 01:39:10;;;;;;;17.82;13.62;;;;;;;8.40;84.65;100509.45;1971089;90;31861;-58
2022/10/23 01:42:19;;;;;;;17.30;11.90;;;;;;;8.36;84.59;100507.82;1973049;90;33156;-57
2022/10/23 01:45:29;;;;;;;17.87;12.53;;;;;;;8.32;84.63;100507.55;1973170;90;29344;-57
2022/10/23 01:48:32;;;;;;;16.40;11.65;;;;;;;8.28;84.72;100505.44;1973132;90;27713;-57
2022/10/23 01:51:34;;;;;;;18.37;12.40;;;;;;;8.25;84.62;100508.24;1972765;90;28679;-57
2022/10/23 01:54:39;;;;;;;19.98;13.75;;;;;;;8.22;84.67;100512.36;2134291;83;32214;-58
2022/10/23 01:57:41;;;;;;;20.95;13.95;;;;;;;8.20;84.69;100520.40;2151662;82;32997;-58
2022/10/23 02:00:44;;;;;;;22.15;14.87;;;;;;;8.17;84.63;100523.65;2138479;82;30533;-58
2022/10/23 02:03:47;;;;;;;16.35;13.25;;;;;;;8.14;84.69;100519.30;2139164;83;27693;-58
2022/10/23 02:06:49;;;;;;;16.85;12.53;;;;;;;8.12;84.73;100515.81;2151276;81;29281;-58
2022/10/23 02:09:51;;;;;;;17.32;12.37;;;;;;;8.10;84.75;100524.34;2141548;83;32267;-58
2022/10/23 02:13:10;;;;;;;17.85;12.03;;;;;;;8.08;84.70;100525.33;2166290;80;33337;-58
2022/10/23 02:16:35;;;;;;;20.50;12.55;;;;;;;8.05;84.75;100521.84;2157999;82;29107;-57
2022/10/23 02:19:56;;;;;;;17.77;13.25;;;;;;;8.01;84.70;100522.02;2184086;80;28858;-57
2022/10/23 02:23:03;;;;;;;20.95;13.48;;;;;;;7.98;84.71;100518.97;2126041;82;29155;-58
2022/10/23 02:26:19;;;;;;;23.73;13.62;;;;;;;7.95;84.71;100522.22;2082292;85;31041;-58
2022/10/23 02:29:41;;;;;;;25.52;13.08;;;;;;;7.90;84.67;100522.38;2106022;84;33383;-57
2022/10/23 02:32:46;;;;;;;24.47;15.03;;;;;;;7.88;84.77;100530.90;2119434;84;29487;-57
2022/10/23 02:35:48;;;;;;;24.32;16.62;;;;;;;7.85;84.72;100531.00;2119675;84;27699;-57
2022/10/23 02:38:49;;;;;;;20.97;13.70;;;;;;;7.82;84.74;100523.09;2119426;84;29596;-57
2022/10/23 02:41:56;;;;;;;19.77;13.25;;;;;;;7.80;84.75;100524.50;2119530;84;32188;-57
2022/10/23 02:45:15;;;;;;;19.65;15.18;;;;;;;7.78;84.79;100522.34;2118148;84;33669;-57
2022/10/23 02:48:24;;;;;;;21.35;16.05;;;;;;;7.78;84.85;100528.16;2119666;83;29335;-57
2022/10/23 02:51:34;;;;;;;23.38;15.50;;;;;;;7.74;84.82;100529.58;2131789;82;27593;-57
2022/10/23 02:54:59;;;;;;;21.25;15.83;;;;;;;7.73;84.85;100532.28;2157881;82;29499;-57
2022/10/23 02:58:14;;;;;;;19.35;14.60;;;;;;;7.71;84.86;100530.12;2157734;82;31054;-57
2022/10/23 03:01:20;;;;;;;21.50;15.30;;;;;;;7.68;84.92;100531.11;2087537;84;32974;-57
2022/10/23 03:04:23;;;;;;;22.37;15.95;;;;;;;7.67;84.95;100536.03;2095386;83;30453;-56
2022/10/23 03:07:25;;;;;;;23.02;15.65;;;;;;;7.66;85.07;100540.95;2129652;83;27674;-57
2022/10/23 03:10:27;;;;;;;24.65;17.23;;;;;;;7.67;85.27;100538.70;2129492;83;30037;-57
2022/10/23 03:13:28;;;;;;;25.43;16.37;;;;;;;7.72;85.55;100538.09;2129594;83;31393;-60
2022/10/23 03:16:29;;;;;;;21.75;16.35;;;;;;;7.78;85.80;100533.48;2129872;83;33464;-58
2022/10/23 03:19:31;;;;;;;25.50;18.45;;;;;;;7.85;85.98;100533.66;2129722;83;29407;-64
2022/10/23 03:22:33;;;;;;;23.47;17.98;;;;;;;7.92;86.13;100535.20;2116326;83;27817;-58
2022/10/23 03:25:34;;;;;;;22.07;17.80;;;;;;;8.01;86.23;100534.02;2110062;84;29159;-59
2022/10/23 03:28:36;;;;;;;24.60;17.12;;;;;;;8.09;86.29;100539.08;2109907;84;31086;-57
2022/10/23 03:31:37;;;;;;;24.15;16.82;;;;;;;8.15;86.37;100537.06;2110275;84;33467;-58
2022/10/23 03:34:39;;;;;;;20.08;15.35;;;;;;;8.23;86.46;100534.11;2110271;84;29427;-58
2022/10/23 03:37:40;;;;;;;26.75;16.65;;;;;;;8.30;86.59;100534.76;2128209;81;27686;-58
2022/10/23 03:40:42;;;;;;;29.80;17.30;;;;;;;8.35;86.50;100530.98;2185718;81;29926;-57
2022/10/23 03:43:43;;;;;;;26.20;17.02;;;;;;;8.41;86.48;100539.71;2186137;81;31431;-57
2022/10/23 03:46:45;;;;;;;26.35;18.12;;;;;;;8.44;86.45;100539.13;2185966;81;33305;-58
2022/10/23 03:49:47;;;;;;;22.48;17.32;;;;;;;8.48;86.44;100542.13;2185563;81;31418;-58
2022/10/23 03:52:50;;;;;;;25.25;16.00;;;;;;;8.51;86.38;100540.69;2188714;81;28168;-58
2022/10/23 03:55:52;;;;;;;23.25;17.05;;;;;;;8.54;86.43;100537.02;2181646;81;29113;-60
2022/10/23 03:58:53;;;;;;;21.97;16.15;;;;;;;8.58;86.48;100539.10;2181523;81;31996;-58
2022/10/23 04:01:55;;;;;;;19.15;15.08;;;;;;;8.62;86.57;100542.08;2181863;81;33375;-58
2022/10/23 04:04:56;;;;;;;24.07;17.23;;;;;;;8.66;86.69;100540.55;2182097;81;30445;-57
2022/10/23 04:08:00;;;;;;;23.50;16.73;;;;;;;8.72;86.70;100537.25;2181950;81;27720;-57
2022/10/23 04:11:01;;;;;;;20.68;15.85;;;;;;;8.75;86.68;100533.14;2182155;81;29859;-57
2022/10/23 04:14:03;;;;;;;23.27;16.17;;;;;;;8.76;86.56;100525.05;2183607;81;31442;-57
2022/10/23 04:17:04;;;;;;;23.92;16.15;;;;;;;8.75;86.33;100532.66;2184745;81;32991;-57
2022/10/23 04:20:06;;;;;;;21.30;14.98;;;;;;;8.73;86.17;100519.83;2155779;82;29745;-57
2022/10/23 04:23:07;;;;;;;27.95;16.62;;;;;;;8.71;86.09;100522.16;2190690;81;27623;-57
2022/10/23 04:26:08;;;;;;;18.17;14.95;;;;;;;8.68;85.94;100514.25;2159961;82;29060;-57
2022/10/23 04:29:09;;;;;;;18.00;14.43;;;;;;;8.63;85.85;100515.77;2159846;81;31070;-58
2022/10/23 04:32:11;;;;;;;21.20;15.35;;;;;;;8.59;85.84;100517.70;2159794;82;34235;-57
2022/10/23 04:35:12;;;;;;;18.57;13.95;;;;;;;8.57;85.81;100524.01;2159934;82;30486;-58
2022/10/23 04:38:13;;;;;;;20.08;14.47;;;;;;;8.52;85.75;100521.52;2121440;83;27622;-57
2022/10/23 04:41:14;;;;;;;23.45;18.05;;;;;;;8.49;85.74;100518.95;2160058;82;29956;-71
2022/10/23 04:44:16;;;;;;;22.13;15.90;;;;;;;8.47;85.67;100523.45;2159927;82;31473;-57
2022/10/23 04:47:17;;;;;;;23.57;15.18;;;;;;;8.41;85.54;100528.55;2121027;83;34121;-60
2022/10/23 04:50:19;;;;;;;21.48;15.83;;;;;;;8.38;85.53;100531.81;2159773;81;30429;-57
2022/10/23 04:53:21;;;;;;;20.77;15.38;;;;;;;8.33;85.56;100531.98;2155659;82;27763;-57
2022/10/23 04:56:22;;;;;;;20.17;15.80;;;;;;;8.28;85.42;100533.94;2184642;81;28664;-57
2022/10/23 04:59:23;;;;;;;20.43;16.50;;;;;;;8.24;85.49;100533.19;2184907;81;32168;-58
2022/10/23 05:02:26;;;;;;;22.15;15.65;;;;;;;8.19;85.41;100535.14;2184325;81;33371;-57
2022/10/23 05:05:27;;;;;;;19.50;15.88;;;;;;;8.15;85.35;100539.73;2183914;81;30529;-57
2022/10/23 05:08:29;;;;;;;23.55;16.48;;;;;;;8.11;85.34;100544.76;2184190;81;27664;-61
2022/10/23 05:11:30;;;;;;;29.70;19.55;;;;;;;8.06;85.34;100543.59;2192349;81;29069;-58
2022/10/23 05:14:32;;;;;;;22.10;16.97;;;;;;;8.03;85.30;100546.81;2173303;81;31325;-57
2022/10/23 05:17:35;;;;;;;26.62;18.87;;;;;;;7.97;85.23;100547.05;2141925;83;32206;-57
2022/10/23 05:20:37;;;;;;;26.20;17.50;;;;;;;7.95;85.31;100553.75;2119087;84;30230;-58
2022/10/23 05:23:41;;;;;;;32.85;19.70;;;;;;;7.94;85.53;100553.81;2138587;83;27786;-58
2022/10/23 05:26:43;;;;;;;25.65;18.00;;;;;;;7.93;85.52;100554.30;2119439;84;28761;-70
2022/10/23 05:29:44;;;;;;;35.83;24.98;;;;;;;7.91;85.53;100562.33;2180316;81;32273;-70
2022/10/23 05:32:46;;;;;;;85.00;41.83;;;;;;;7.90;85.59;100555.73;2151461;82;33360;-70
2022/10/23 05:35:50;;;;;;;82.45;39.50;;;;;;;7.91;85.73;100558.33;2168595;81;28883;-70
2022/10/23 05:38:52;;;;;;;92.78;45.98;;;;;;;7.93;85.88;100568.97;2151854;81;27611;-67
2022/10/23 05:41:53;;;;;;;94.15;43.15;;;;;;;7.96;86.12;100563.98;2178488;81;29040;-70
2022/10/23 05:44:55;;;;;;;69.67;37.83;;;;;;;7.99;86.20;100566.55;2188884;80;32264;-57
2022/10/23 05:47:56;;;;;;;78.12;40.50;;;;;;;8.03;86.30;100565.04;2189216;81;33041;-65
2022/10/23 05:51:07;;;;;;;106.03;44.67;;;;;;;8.08;86.39;100566.21;2189124;80;30474;-69
2022/10/23 05:54:08;;;;;;;95.40;41.40;;;;;;;8.10;86.42;100559.02;2175637;80;27548;-70
2022/10/23 05:57:09;;;;;;;53.02;32.28;;;;;;;8.14;86.45;100562.45;2144449;82;29832;-70
2022/10/23 06:00:12;;;;;;;53.58;29.55;;;;;;;8.16;86.47;100565.49;2151450;82;31503;-68
2022/10/23 06:03:13;;;;;;;46.30;29.50;;;;;;;8.21;86.50;100566.17;2141643;83;33385;-69
2022/10/23 06:06:16;;;;;;;39.55;25.90;;;;;;;8.26;86.60;100562.03;2151506;81;29742;-70
2022/10/23 06:09:17;;;;;;;38.00;24.23;;;;;;;8.31;86.62;100558.72;2141907;83;27713;-59
2022/10/23 06:12:20;;;;;;;43.02;27.48;;;;;;;8.39;86.72;100556.24;2151373;81;28678;-67
2022/10/23 06:15:21;;;;;;;41.68;25.60;;;;;;;8.45;86.73;100554.22;2165119;82;31210;-70
2022/10/23 06:18:23;;;;;;;38.98;25.55;;;;;;;8.52;86.76;100556.23;2170596;81;33423;-68
2022/10/23 06:21:24;;;;;;;34.05;23.98;;;;;;;8.57;86.69;100552.05;2170882;81;29761;-58
2022/10/23 06:24:26;;;;;;;36.13;24.25;;;;;;;8.62;86.67;100556.28;2150877;82;28090;-73
2022/10/23 06:27:27;;;;;;;41.92;26.45;;;;;;;8.66;86.70;100566.41;2106001;84;30070;-67
2022/10/23 06:30:31;;;;;;;44.63;24.43;;;;;;;8.74;86.76;100575.47;2143592;83;31143;-60
2022/10/23 06:33:33;;;;;;;37.60;24.85;;;;;;;8.81;86.86;100575.63;2094239;84;32884;-66
2022/10/23 06:36:34;;;;;;;34.15;24.35;;;;;;;8.90;86.93;100585.09;2149998;82;31425;-70
2022/10/23 06:39:35;;;;;;;39.35;25.75;;;;;;;8.97;86.93;100581.27;2134689;83;28251;-67
2022/10/23 06:42:37;;;;;;;38.33;26.77;;;;;;;9.06;86.94;100588.06;2150648;82;29069;-69
2022/10/23 06:45:38;;;;;;;35.28;26.25;;;;;;;9.14;86.99;100585.09;2134795;83;31382;-59
2022/10/23 06:48:43;;;;;;;41.63;28.80;;;;;;;9.22;87.04;100577.17;2150544;82;33402;-71
2022/10/23 06:51:45;;;;;;;42.15;28.67;;;;;;;9.32;87.09;100583.03;2134648;83;29335;-59
2022/10/23 06:54:46;;;;;;;40.95;27.58;;;;;;;9.46;87.23;100597.64;2163579;81;27654;-58
2022/10/23 06:57:47;;;;;;;41.00;27.02;;;;;;;9.58;87.31;100601.16;2163404;82;28663;-65
2022/10/23 07:00:49;;;;;;;34.20;24.60;;;;;;;9.71;87.34;100598.37;2162774;82;31035;-59
2022/10/23 07:03:50;;;;;;;36.48;25.12;;;;;;;9.83;87.31;100598.33;2162984;81;35054;-57
2022/10/23 07:06:56;;;;;;;35.58;24.82;;;;;;;9.96;87.44;100593.80;2163512;81;29720;-63
2022/10/23 07:09:57;;;;;;;36.08;24.25;;;;;;;10.09;87.55;100596.37;2163394;81;27728;-57
2022/10/23 07:12:59;;;;;;;30.72;22.65;;;;;;;10.26;87.66;100599.65;2163347;81;28650;-59
2022/10/23 07:16:19;;;;;;;32.48;23.47;;;;;;;10.43;87.75;100596.73;2182675;80;31460;-59
2022/10/23 07:19:21;;;;;;;38.17;23.62;;;;;;;10.64;88.03;100597.12;2184468;81;33745;-62
2022/10/23 07:22:23;;;;;;;33.53;21.17;;;;;;;10.84;87.84;100596.66;2185994;81;30062;-61
2022/10/23 07:25:26;;;;;;;24.70;16.45;;;;;;;11.02;87.92;100580.66;2192632;81;27715;-59
2022/10/23 07:28:27;;;;;;;22.73;15.83;;;;;;;11.22;88.07;100573.03;2192470;80;28694;-57
2022/10/23 07:31:29;;;;;;;23.83;17.27;;;;;;;11.39;87.99;100578.45;2192337;81;31402;-57
2022/10/23 07:34:31;;;;;;;24.12;16.25;;;;;;;11.58;88.00;100572.19;2159601;82;33029;-67
2022/10/23 07:37:32;;;;;;;22.65;15.65;;;;;;;11.78;88.04;100576.55;2159848;82;30474;-60
2022/10/23 07:40:36;;;;;;;24.52;16.77;;;;;;;12.03;88.14;100575.80;2159657;82;27744;-57
2022/10/23 07:43:39;;;;;;;24.60;15.98;;;;;;;12.25;88.17;100573.72;2121378;83;28655;-64
2022/10/23 07:46:42;;;;;;;25.35;16.90;;;;;;;12.51;88.18;100583.59;2159812;81;31209;-61
2022/10/23 07:49:43;;;;;;;20.57;15.45;;;;;;;12.71;87.89;100577.62;2159821;81;33353;-57
2022/10/23 07:52:46;;;;;;;20.75;15.85;;;;;;;12.88;87.69;100578.92;2120114;83;30120;-58
2022/10/23 07:55:53;;;;;;;23.60;15.85;;;;;;;13.10;87.72;100571.47;2190224;81;27708;-60
2022/10/23 07:58:58;;;;;;;25.25;16.42;;;;;;;13.31;87.58;100572.96;2192424;80;27662;-58
2022/10/23 08:02:00;;;;;;;20.75;14.63;;;;;;;13.48;87.19;100567.13;2192554;80;31408;-58
2022/10/23 08:05:01;;;;;;;23.18;16.20;;;;;;;13.62;87.06;100573.03;2192546;80;34090;-57
2022/10/23 08:08:04;;;;;;;26.42;15.85;;;;;;;13.74;86.74;100579.05;2192233;80;30494;-58
2022/10/23 08:11:06;;;;;;;22.45;16.07;;;;;;;13.90;86.95;100576.33;2192534;81;27621;-58
2022/10/23 08:14:09;;;;;;;19.35;14.95;;;;;;;14.02;86.48;100584.16;2159828;80;28883;-59
2022/10/23 08:17:10;;;;;;;20.17;14.95;;;;;;;14.11;86.23;100573.32;2159516;81;31927;-56
2022/10/23 08:20:12;;;;;;;21.37;14.20;;;;;;;14.21;86.20;100577.18;2160102;82;32992;-57
2022/10/23 08:23:17;;;;;;;21.60;14.78;;;;;;;14.31;85.97;100586.08;2128362;83;29698;-62
2022/10/23 08:26:19;;;;;;;;;;;;;;;14.39;85.86;100579.72;2187533;81;27695;-58
2022/10/23 08:29:21;;;;;;;18.23;12.82;;;;;;;14.52;85.92;100583.39;2184526;81;29266;-57
2022/10/23 08:32:23;;;;;;;17.73;13.78;;;;;;;14.65;86.01;100586.20;2184364;81;31067;-60
2022/10/23 08:35:25;;;;;;;17.12;12.80;;;;;;;14.81;85.76;100582.08;2184256;81;34307;-60
2022/10/23 08:38:26;;;;;;;16.02;11.95;;;;;;;14.97;85.80;100579.78;2184526;81;30662;-59
2022/10/23 08:41:38;;;;;;;17.52;11.53;;;;;;;15.12;85.52;100587.36;2184696;81;27726;-58
2022/10/23 08:45:09;;;;;;;16.45;11.73;;;;;;;15.22;85.19;100579.55;2189767;81;28650;-57
2022/10/23 08:48:48;;;;;;;13.45;10.90;;;;;;;15.36;85.35;100576.80;2190243;81;31967;-60
2022/10/23 08:51:52;;;;;;;14.13;10.93;;;;;;;15.48;84.85;100582.74;2192115;81;33339;-58
2022/10/23 08:55:15;;;;;;;11.68;10.23;;;;;;;15.57;84.69;100585.82;2184284;81;29776;-58
2022/10/23 08:58:30;;;;;;;13.75;10.28;;;;;;;15.63;84.47;100584.08;2189955;81;27650;-58
2022/10/23 09:01:45;;;;;;;11.93;9.25;;;;;;;15.73;84.38;100587.00;2228801;79;29845;-57
2022/10/23 09:04:48;;;;;;;11.83;9.53;;;;;;;15.78;83.96;100589.80;2228990;79;31801;-57
2022/10/23 09:08:11;;;;;;;12.90;9.80;;;;;;;15.89;84.28;100585.03;2229248;79;33856;-58
2022/10/23 09:11:32;;;;;;;9.38;8.05;;;;;;;16.01;84.00;100589.25;2229003;79;29705;-58
2022/10/23 09:14:51;;;;;;;9.83;7.45;;;;;;;16.13;83.61;100593.80;2175064;79;27744;-59
2022/10/23 09:18:00;;;;;;;12.23;8.03;;;;;;;16.21;82.96;100592.81;2119164;83;28679;-59
2022/10/23 09:21:04;;;;;;;9.38;6.97;;;;;;;16.34;82.95;100597.36;2181567;79;32277;-59
2022/10/23 09:24:12;;;;;;;12.82;6.92;;;;;;;16.45;82.89;100592.06;2180815;81;33327;-60
2022/10/23 09:27:18;;;;;;;12.40;6.67;;;;;;;16.54;82.46;100590.09;2181144;81;29674;-58
2022/10/23 09:30:39;;;;;;;9.75;6.20;;;;;;;16.64;82.16;100590.77;2180208;81;27719;-60
2022/10/23 09:33:40;;;;;;;7.97;6.20;;;;;;;16.74;82.29;100585.58;2180562;81;29078;-62
2022/10/23 09:36:49;;;;;;;7.85;6.30;;;;;;;16.85;81.85;100591.08;2180231;81;31209;-59
2022/10/23 09:40:13;;;;;;;9.75;5.67;;;;;;;16.93;81.44;100590.53;2183543;81;33762;-58
2022/10/23 09:43:20;;;;;;;9.15;5.95;;;;;;;17.00;80.77;100593.22;2179834;81;29672;-58
2022/10/23 09:46:21;;;;;;;9.05;6.03;;;;;;;17.04;80.54;100593.38;2183273;81;27685;-58
2022/10/23 09:49:27;;;;;;;8.85;5.60;;;;;;;17.09;80.25;100592.54;2118987;83;28687;-57
2022/10/23 09:52:35;;;;;;;7.12;5.20;;;;;;;17.13;79.98;100589.11;2124034;83;31079;-58
2022/10/23 09:55:36;;;;;;;12.50;5.15;;;;;;;17.16;79.92;100586.19;2182933;81;33552;-57
2022/10/23 09:58:46;;;;;;;11.20;5.05;;;;;;;17.20;79.74;100584.99;2183421;81;29690;-61
2022/10/23 10:01:58;;;;;;;6.47;5.00;;;;;;;17.23;79.11;100583.89;2181767;81;27810;-58
2022/10/23 10:05:01;;;;;;;9.88;5.62;;;;;;;17.26;78.83;100590.44;2179860;81;29512;-57
2022/10/23 10:08:29;;;;;;;6.35;4.85;;;;;;;17.24;78.52;100581.09;2181938;80;31414;-59
2022/10/23 10:11:51;;;;;;;8.30;4.72;;;;;;;17.23;78.37;100571.23;2179227;81;35165;-57
2022/10/23 10:15:23;;;;;;;6.00;4.80;;;;;;;17.29;78.31;100572.63;2182541;81;30165;-57
2022/10/23 10:18:36;;;;;;;6.15;4.37;;;;;;;17.35;78.03;100571.30;2173430;81;27505;-57
2022/10/23 10:22:01;;;;;;;10.25;4.72;;;;;;;17.45;78.18;100571.02;2128278;83;28733;-56
2022/10/23 10:25:19;;;;;;;9.10;5.40;;;;;;;17.56;78.17;100574.25;2144152;82;32207;-57
2022/10/23 10:28:47;;;;;;;6.45;5.08;;;;;;;17.64;77.51;100565.55;2144172;82;33758;-62
2022/10/23 10:32:06;;;;;;;8.40;4.90;;;;;;;17.71;77.67;100560.05;2143993;82;29749;-58
2022/10/23 10:35:27;;;;;;;10.28;6.28;;;;;;;17.77;77.45;100550.96;2144514;82;27658;-58
2022/10/23 10:38:50;;;;;;;9.98;6.33;;;;;;;17.82;77.16;100556.53;2144436;82;29836;-58
2022/10/23 10:42:00;;;;;;;10.48;5.83;;;;;;;17.81;76.69;100551.58;2144182;82;31120;-58
2022/10/23 10:45:30;;;;;;;11.05;6.47;;;;;;;17.78;76.75;100555.91;2144235;82;33396;-57
2022/10/23 10:48:51;;;;;;;8.43;6.15;;;;;;;17.77;76.68;100552.31;2144249;83;28975;-57
2022/10/23 10:52:09;;;;;;;7.25;5.08;;;;;;;17.79;76.71;100541.34;2076912;85;27824;-58
2022/10/23 10:55:28;;;;;;;12.15;5.47;;;;;;;17.86;76.57;100535.00;2103818;84;28687;-58
2022/10/23 10:58:45;;;;;;;8.10;6.67;;;;;;;17.90;76.33;100530.57;2079427;85;31070;-58
2022/10/23 11:02:21;;;;;;;7.35;5.40;;;;;;;17.99;76.49;100529.03;2103455;84;32991;-58
2022/10/23 11:05:39;;;;;;;6.30;4.72;;;;;;;18.07;76.10;100529.79;2079443;85;29383;-58
2022/10/23 11:08:41;;;;;;;10.05;5.08;;;;;;;18.14;75.26;100519.33;2103581;84;27786;-58
2022/10/23 11:11:43;;;;;;;8.23;5.28;;;;;;;18.17;75.64;100509.59;2079845;85;29084;-58
2022/10/23 11:14:45;;;;;;;8.03;5.78;;;;;;;18.20;75.34;100515.64;2103389;84;32286;-57
2022/10/23 11:17:51;;;;;;;7.75;5.47;;;;;;;18.21;74.90;100503.81;2080703;85;32995;-58
2022/10/23 11:21:15;;;;;;;8.80;5.20;;;;;;;18.19;74.31;100507.13;2043835;87;29413;-60
2022/10/23 11:24:58;;;;;;;10.08;5.12;;;;;;;18.16;74.08;100502.45;2078128;84;27725;-58
2022/10/23 11:28:17;;;;;;;9.15;4.83;;;;;;;18.11;74.21;100496.52;2094636;83;29390;-58
2022/10/23 11:31:51;;;;;;;5.12;4.33;;;;;;;18.08;74.36;100490.84;2188934;81;31839;-58
2022/10/23 11:35:04;;;;;;;5.95;4.40;;;;;;;18.07;73.86;100495.39;2188519;81;33365;-65
2022/10/23 11:38:18;;;;;;;10.15;7.58;;;;;;;18.05;73.80;100494.64;2188442;81;29766;-58
2022/10/23 11:41:24;;;;;;;8.05;6.62;;;;;;;18.05;73.72;100497.86;2188934;81;27786;-58
2022/10/23 11:44:49;;;;;;;8.93;4.78;;;;;;;18.07;73.72;100501.32;2188953;81;28714;-58
2022/10/23 11:48:19;;;;;;;9.65;6.60;;;;;;;18.13;73.89;100499.97;2189100;81;31397;-65
2022/10/23 11:51:38;;;;;;;7.30;5.17;;;;;;;18.20;73.65;100490.38;2171661;81;33498;-68
2022/10/23 11:54:39;;;;;;;7.35;4.35;;;;;;;18.22;73.33;100488.38;2159937;82;29676;-58
2022/10/23 11:57:41;;;;;;;11.45;5.50;;;;;;;18.24;73.10;100481.50;2160336;82;27592;-64
2022/10/23 12:00:56;;;;;;;6.67;4.95;;;;;;;18.22;72.71;100474.35;2159787;82;28644;-68
2022/10/23 12:04:07;;;;;;;;;;;;;;;18.17;72.85;100469.77;2161592;81;31044;-58
2022/10/23 12:07:22;;;;;;;6.42;4.53;;;;;;;18.17;72.52;100467.57;2156707;82;33420;-58
2022/10/23 12:10:33;;;;;;;6.08;4.95;;;;;;;18.13;72.62;100466.08;2159780;82;30556;-73
2022/10/23 12:13:43;;;;;;;6.30;4.10;;;;;;;18.11;72.77;100453.13;2160131;82;27702;-64
2022/10/23 12:16:44;;;;;;;6.85;5.12;;;;;;;18.07;72.27;100445.23;2159519;82;29477;-60
2022/10/23 12:19:56;;;;;;;7.60;4.70;;;;;;;18.04;72.42;100448.69;2159693;82;31888;-60
2022/10/23 12:23:18;;;;;;;9.85;5.58;;;;;;;18.02;72.33;100447.47;2158259;82;32963;-66
2022/10/23 12:26:58;;;;;;;5.70;4.40;;;;;;;18.01;72.10;100442.15;2159029;82;28665;-57
2022/10/23 12:30:24;;;;;;;8.40;4.42;;;;;;;17.97;72.06;100433.84;2159944;82;27658;-61
2022/10/23 12:33:44;;;;;;;5.90;4.00;;;;;;;17.90;71.55;100424.86;2159784;82;28855;-61
2022/10/23 12:37:08;;;;;;;9.28;5.50;;;;;;;17.86;71.60;100417.09;2151940;82;31449;-58
2022/10/23 12:40:10;;;;;;;5.08;4.17;;;;;;;17.83;71.25;100414.62;2159931;82;37267;-58
2022/10/23 12:43:28;;;;;;;7.55;4.20;;;;;;;17.76;70.65;100414.25;2132262;82;29383;-57
2022/10/23 12:46:39;;;;;;;7.47;3.90;;;;;;;17.71;70.75;100407.80;2159748;82;27647;-58
2022/10/23 12:49:48;;;;;;;4.65;4.03;;;;;;;17.68;70.81;100405.36;2159678;82;28717;-58
2022/10/23 12:52:59;;;;;;;8.68;4.78;;;;;;;17.64;70.42;100401.16;2085726;85;31032;-65
2022/10/23 12:56:04;;;;;;;6.25;4.83;;;;;;;17.64;70.70;100394.86;2122655;83;35044;-57
2022/10/23 12:59:16;;;;;;;12.15;5.22;;;;;;;17.64;70.80;100387.61;2122784;83;30631;-57
2022/10/23 13:02:24;;;;;;;8.83;6.03;;;;;;;17.64;70.60;100388.97;2123104;83;28300;-57
2022/10/23 13:05:26;;;;;;;6.97;4.50;;;;;;;17.65;70.22;100389.81;2123097;83;29344;-57
2022/10/23 13:08:41;;;;;;;8.05;5.30;;;;;;;17.61;70.02;100383.30;2085326;85;33194;-56
2022/10/23 13:11:42;;;;;;;6.50;4.47;;;;;;;17.64;70.40;100388.09;2123250;83;33010;-56
2022/10/23 13:15:11;;;;;;;9.78;5.65;;;;;;;17.65;70.23;100387.11;2122963;83;29325;-56
2022/10/23 13:18:13;;;;;;;7.35;5.03;;;;;;;17.66;70.10;100385.65;2133742;83;27579;-57
2022/10/23 13:21:20;;;;;;;10.38;6.58;;;;;;;17.68;70.34;100382.33;2150591;81;29108;-57
2022/10/23 13:24:22;;;;;;;12.63;7.00;;;;;;;17.70;70.43;100387.62;2169012;81;31887;-60
2022/10/23 13:27:32;;;;;;;10.80;5.95;;;;;;;17.70;70.34;100382.20;2163263;82;33772;-56
2022/10/23 13:30:41;;;;;;;9.85;4.78;;;;;;;17.70;70.19;100374.07;2162981;82;29372;-56
2022/10/23 13:33:53;;;;;;;7.87;5.25;;;;;;;17.69;70.11;100374.58;2163421;82;27695;-56
2022/10/23 13:37:03;;;;;;;8.55;4.90;;;;;;;17.70;70.19;100364.59;2163706;82;29005;-56
2022/10/23 13:40:24;;;;;;;6.60;5.15;;;;;;;17.69;69.93;100367.80;2163709;81;31053;-56
2022/10/23 13:43:26;;;;;;;6.25;4.08;;;;;;;17.69;69.93;100373.22;2163382;81;33952;-55
2022/10/23 13:46:28;;;;;;;7.97;5.45;;;;;;;17.69;69.90;100378.64;2163634;82;29109;-55
2022/10/23 13:49:30;;;;;;;10.00;6.17;;;;;;;17.71;69.94;100369.88;2163294;82;28290;-61
2022/10/23 13:52:31;;;;;;;6.78;5.17;;;;;;;17.71;69.84;100365.81;2164937;81;29059;-56
2022/10/23 13:55:33;;;;;;;12.85;5.90;;;;;;;17.69;69.90;100367.80;2173726;81;31404;-56
2022/10/23 13:58:34;;;;;;;6.80;4.78;;;;;;;17.69;69.97;100366.92;2151492;82;34150;-56
2022/10/23 14:01:36;;;;;;;9.23;4.90;;;;;;;17.68;69.98;100360.66;2173664;81;30213;-56
2022/10/23 14:04:37;;;;;;;9.75;4.90;;;;;;;17.65;70.07;100356.83;2174120;81;27619;-57
2022/10/23 14:07:39;;;;;;;7.62;4.90;;;;;;;17.64;70.27;100367.30;2173518;81;29143;-56
2022/10/23 14:10:40;;;;;;;5.75;4.47;;;;;;;17.60;70.38;100363.09;2151490;82;31430;-56
2022/10/23 14:13:42;;;;;;;7.22;5.12;;;;;;;17.57;70.44;100359.27;2173904;81;33568;-56
2022/10/23 14:16:43;;;;;;;10.28;6.20;;;;;;;17.54;70.52;100363.59;2173173;81;29726;-56
2022/10/23 14:19:44;;;;;;;9.35;5.33;;;;;;;17.53;70.61;100367.28;2171451;82;27615;-56
2022/10/23 14:22:45;;;;;;;9.30;5.95;;;;;;;17.51;70.56;100374.66;2165066;82;29147;-57
2022/10/23 14:25:47;;;;;;;11.75;6.20;;;;;;;17.45;70.65;100364.66;2106136;84;31088;-56